sensor_id;sensor_type;location;lat;lon;timestamp;pressure;altitude;pressure_sealevel;temperature;humidity
72024;BME280;59889;50.700;5.440;2023-04-20T00:00:39;100489.03;;;22.49;32.44
72024;BME280;59889;50.700;5.440;2023-04-20T00:03:05;100487.25;;;22.41;32.52
72024;BME280;59889;50.700;5.440;2023-04-20T00:05:30;100485.36;;;22.46;32.46
72024;BME280;59889;50.700;5.440;2023-04-20T00:07:55;100486.62;;;22.43;32.50
72024;BME280;59889;50.700;5.440;2023-04-20T00:10:20;100484.72;;;22.64;32.55
72024;BME280;59889;50.700;5.440;2023-04-20T00:12:45;100483.24;;;22.37;32.56
72024;BME280;59889;50.700;5.440;2023-04-20T00:15:10;100479.83;;;22.35;32.60
72024;BME280;59889;50.700;5.440;2023-04-20T00:17:36;100475.02;;;22.63;32.54
72024;BME280;59889;50.700;5.440;2023-04-20T00:20:00;100472.84;;;22.42;32.51
72024;BME280;59889;50.700;5.440;2023-04-20T00:22:25;100469.45;;;22.68;32.50
72024;BME280;59889;50.700;5.440;2023-04-20T00:24:50;100464.75;;;22.63;32.55
72024;BME280;59889;50.700;5.440;2023-04-20T00:27:15;100458.50;;;22.64;32.51
72024;BME280;59889;50.700;5.440;2023-04-20T00:29:40;100454.76;;;22.45;32.47
72024;BME280;59889;50.700;5.440;2023-04-20T00:32:05;100452.18;;;22.67;32.48
72024;BME280;59889;50.700;5.440;2023-04-20T00:34:30;100449.03;;;22.68;32.48
72024;BME280;59889;50.700;5.440;2023-04-20T00:36:55;100451.52;;;22.67;32.48
72024;BME280;59889;50.700;5.440;2023-04-20T00:39:20;100449.82;;;22.62;32.56
72024;BME280;59889;50.700;5.440;2023-04-20T00:41:45;100444.60;;;22.69;32.47
72024;BME280;59889;50.700;5.440;2023-04-20T00:44:10;100444.62;;;22.63;32.54
72024;BME280;59889;50.700;5.440;2023-04-20T00:46:35;100444.03;;;22.62;32.54
72024;BME280;59889;50.700;5.440;2023-04-20T00:49:00;100439.09;;;22.64;32.51
72024;BME280;59889;50.700;5.440;2023-04-20T00:51:26;100437.36;;;22.38;32.54
72024;BME280;59889;50.700;5.440;2023-04-20T00:53:51;100437.06;;;22.38;32.53
72024;BME280;59889;50.700;5.440;2023-04-20T00:56:16;100433.47;;;22.68;32.46
72024;BME280;59889;50.700;5.440;2023-04-20T00:58:41;100434.68;;;22.63;32.52
72024;BME280;59889;50.700;5.440;2023-04-20T01:01:05;100432.40;;;22.41;32.50
72024;BME280;59889;50.700;5.440;2023-04-20T01:03:31;100428.38;;;22.60;32.56
72024;BME280;59889;50.700;5.440;2023-04-20T01:05:56;100431.49;;;22.57;32.57
72024;BME280;59889;50.700;5.440;2023-04-20T01:08:24;100429.90;;;22.38;32.53
72024;BME280;59889;50.700;5.440;2023-04-20T01:10:46;100427.03;;;22.61;32.53
72024;BME280;59889;50.700;5.440;2023-04-20T01:13:11;100426.66;;;22.82;32.58
72024;BME280;59889;50.700;5.440;2023-04-20T01:15:36;100424.45;;;22.35;32.57
72024;BME280;59889;50.700;5.440;2023-04-20T01:18:01;100422.07;;;22.38;32.51
72024;BME280;59889;50.700;5.440;2023-04-20T01:20:26;100416.61;;;22.62;32.53
72024;BME280;59889;50.700;5.440;2023-04-20T01:22:52;100412.05;;;22.57;32.57
72024;BME280;59889;50.700;5.440;2023-04-20T01:25:16;100408.08;;;22.31;32.60
72024;BME280;59889;50.700;5.440;2023-04-20T01:27:41;100406.38;;;22.57;32.57
72024;BME280;59889;50.700;5.440;2023-04-20T01:30:07;100401.93;;;22.29;32.63
72024;BME280;59889;50.700;5.440;2023-04-20T01:32:31;100394.07;;;22.27;32.64
72024;BME280;59889;50.700;5.440;2023-04-20T01:34:56;100386.20;;;22.56;32.60
72024;BME280;59889;50.700;5.440;2023-04-20T01:37:21;100384.02;;;22.59;32.55
72024;BME280;59889;50.700;5.440;2023-04-20T01:39:46;100386.11;;;22.49;32.68
72024;BME280;59889;50.700;5.440;2023-04-20T01:42:11;100381.52;;;22.48;32.68
72024;BME280;59889;50.700;5.440;2023-04-20T01:44:37;100375.76;;;22.50;32.63
72024;BME280;59889;50.700;5.440;2023-04-20T01:47:01;100372.73;;;22.27;32.60
72024;BME280;59889;50.700;5.440;2023-04-20T01:49:26;100370.90;;;22.31;32.58
72024;BME280;59889;50.700;5.440;2023-04-20T01:51:51;100369.15;;;22.34;32.55
72024;BME280;59889;50.700;5.440;2023-04-20T01:54:16;100369.12;;;22.54;32.60
72024;BME280;59889;50.700;5.440;2023-04-20T01:56:41;100367.50;;;22.34;32.52
72024;BME280;59889;50.700;5.440;2023-04-20T01:59:07;100361.55;;;22.31;32.59
72024;BME280;59889;50.700;5.440;2023-04-20T02:01:32;100358.41;;;22.59;32.57
72024;BME280;59889;50.700;5.440;2023-04-20T02:03:57;100355.94;;;22.61;32.54
72024;BME280;59889;50.700;5.440;2023-04-20T02:06:22;100354.17;;;22.62;32.52
72024;BME280;59889;50.700;5.440;2023-04-20T02:08:47;100352.46;;;22.54;32.58
72024;BME280;59889;50.700;5.440;2023-04-20T02:11:12;100350.62;;;22.30;32.59
72024;BME280;59889;50.700;5.440;2023-04-20T02:13:37;100350.58;;;22.75;32.62
72024;BME280;59889;50.700;5.440;2023-04-20T02:16:03;100353.80;;;22.32;32.75
72024;BME280;59889;50.700;5.440;2023-04-20T02:18:27;100351.62;;;22.22;32.62
72024;BME280;59889;50.700;5.440;2023-04-20T02:20:52;100350.27;;;22.50;32.63
72024;BME280;59889;50.700;5.440;2023-04-20T02:23:17;100345.72;;;22.78;32.57
72024;BME280;59889;50.700;5.440;2023-04-20T02:25:43;100339.45;;;22.48;32.62
72024;BME280;59889;50.700;5.440;2023-04-20T02:28:08;100336.20;;;22.29;32.53
72024;BME280;59889;50.700;5.440;2023-04-20T02:30:33;100338.14;;;22.55;32.56
72024;BME280;59889;50.700;5.440;2023-04-20T02:32:58;100335.87;;;22.76;32.60
72024;BME280;59889;50.700;5.440;2023-04-20T02:35:23;100331.61;;;22.44;32.68
72024;BME280;59889;50.700;5.440;2023-04-20T02:37:48;100328.85;;;22.41;32.71
72024;BME280;59889;50.700;5.440;2023-04-20T02:40:13;100328.93;;;22.38;32.66
72024;BME280;59889;50.700;5.440;2023-04-20T02:42:38;100324.39;;;22.44;32.67
72024;BME280;59889;50.700;5.440;2023-04-20T02:45:04;100323.31;;;22.39;32.74
72024;BME280;59889;50.700;5.440;2023-04-20T02:47:28;100321.92;;;22.41;32.67
72024;BME280;59889;50.700;5.440;2023-04-20T02:49:53;100314.60;;;22.42;32.68
72024;BME280;59889;50.700;5.440;2023-04-20T02:52:18;100317.58;;;22.42;32.67
72024;BME280;59889;50.700;5.440;2023-04-20T02:54:44;100316.81;;;22.35;32.77
72024;BME280;59889;50.700;5.440;2023-04-20T02:57:08;100320.43;;;22.42;32.71
72024;BME280;59889;50.700;5.440;2023-04-20T02:59:33;100316.11;;;22.57;32.79
72024;BME280;59889;50.700;5.440;2023-04-20T03:01:58;100313.52;;;22.11;32.79
72024;BME280;59889;50.700;5.440;2023-04-20T03:04:24;100312.15;;;22.16;32.70
72024;BME280;59889;50.700;5.440;2023-04-20T03:06:49;100307.88;;;22.64;32.69
72024;BME280;59889;50.700;5.440;2023-04-20T03:09:13;100305.48;;;22.37;32.70
72024;BME280;59889;50.700;5.440;2023-04-20T03:11:38;100304.16;;;22.61;32.73
72024;BME280;59889;50.700;5.440;2023-04-20T03:14:03;100300.59;;;22.62;32.70
72024;BME280;59889;50.700;5.440;2023-04-20T03:16:28;100295.64;;;22.55;32.80
72024;BME280;59889;50.700;5.440;2023-04-20T03:18:54;100288.74;;;22.07;32.80
72024;BME280;59889;50.700;5.440;2023-04-20T03:21:19;100288.17;;;22.41;32.69
72024;BME280;59889;50.700;5.440;2023-04-20T03:23:44;100281.64;;;22.13;32.68
72024;BME280;59889;50.700;5.440;2023-04-20T03:26:09;100273.33;;;22.58;32.71
72024;BME280;59889;50.700;5.440;2023-04-20T03:28:34;100268.74;;;22.28;32.82
72024;BME280;59889;50.700;5.440;2023-04-20T03:30:59;100269.02;;;22.59;32.74
72024;BME280;59889;50.700;5.440;2023-04-20T03:33:24;100265.47;;;22.12;32.74
72024;BME280;59889;50.700;5.440;2023-04-20T03:35:49;100264.71;;;22.41;32.62
72024;BME280;59889;50.700;5.440;2023-04-20T03:38:14;100265.31;;;22.31;32.77
72024;BME280;59889;50.700;5.440;2023-04-20T03:40:39;100262.79;;;22.16;32.64
72024;BME280;59889;50.700;5.440;2023-04-20T03:43:04;100264.65;;;22.36;32.70
72024;BME280;59889;50.700;5.440;2023-04-20T03:45:29;100259.62;;;22.57;32.76
72024;BME280;59889;50.700;5.440;2023-04-20T03:47:54;100249.15;;;22.11;32.65
72024;BME280;59889;50.700;5.440;2023-04-20T03:50:19;100239.57;;;22.37;32.66
72024;BME280;59889;50.700;5.440;2023-04-20T03:52:44;100235.81;;;22.33;32.74
72024;BME280;59889;50.700;5.440;2023-04-20T03:55:09;100234.65;;;22.36;32.65
72024;BME280;59889;50.700;5.440;2023-04-20T03:57:34;100235.76;;;22.28;32.80
72024;BME280;59889;50.700;5.440;2023-04-20T04:00:00;100232.54;;;22.30;32.75
72024;BME280;59889;50.700;5.440;2023-04-20T04:02:25;100230.94;;;22.34;32.72
72024;BME280;59889;50.700;5.440;2023-04-20T04:04:50;100233.98;;;22.11;32.97
72024;BME280;59889;50.700;5.440;2023-04-20T04:07:15;100235.13;;;22.00;33.23
72024;BME280;59889;50.700;5.440;2023-04-20T04:09:40;100233.63;;;22.11;32.85
72024;BME280;59889;50.700;5.440;2023-04-20T04:12:06;100234.87;;;22.21;32.25
72024;BME280;59889;50.700;5.440;2023-04-20T04:14:30;100237.49;;;21.83;31.84
72024;BME280;59889;50.700;5.440;2023-04-20T04:16:55;100233.41;;;21.78;31.47
72024;BME280;59889;50.700;5.440;2023-04-20T04:19:20;100229.23;;;22.01;31.11
72024;BME280;59889;50.700;5.440;2023-04-20T04:21:45;100227.66;;;21.74;30.81
72024;BME280;59889;50.700;5.440;2023-04-20T04:24:10;100227.26;;;21.76;30.54
72024;BME280;59889;50.700;5.440;2023-04-20T04:26:35;100223.18;;;21.90;30.43
72024;BME280;59889;50.700;5.440;2023-04-20T04:29:00;100220.05;;;21.67;30.16
72024;BME280;59889;50.700;5.440;2023-04-20T04:31:25;100217.82;;;21.86;30.70
72024;BME280;59889;50.700;5.440;2023-04-20T04:33:50;100216.50;;;21.69;31.63
72024;BME280;59889;50.700;5.440;2023-04-20T04:36:16;100213.99;;;21.84;31.78
72024;BME280;59889;50.700;5.440;2023-04-20T04:38:41;100215.41;;;21.77;31.97
72024;BME280;59889;50.700;5.440;2023-04-20T04:41:06;100213.47;;;21.83;32.03
72024;BME280;59889;50.700;5.440;2023-04-20T04:43:31;100216.03;;;21.77;32.09
72024;BME280;59889;50.700;5.440;2023-04-20T04:45:56;100218.37;;;21.56;32.20
72024;BME280;59889;50.700;5.440;2023-04-20T04:48:21;100215.33;;;21.47;32.36
72024;BME280;59889;50.700;5.440;2023-04-20T04:50:46;100208.55;;;21.80;32.29
72024;BME280;59889;50.700;5.440;2023-04-20T04:53:11;100204.96;;;21.74;32.38
72024;BME280;59889;50.700;5.440;2023-04-20T04:55:36;100205.85;;;21.77;32.38
72024;BME280;59889;50.700;5.440;2023-04-20T04:58:01;100211.39;;;21.54;32.36
72024;BME280;59889;50.700;5.440;2023-04-20T05:00:27;100206.62;;;21.63;32.24
72024;BME280;59889;50.700;5.440;2023-04-20T05:02:52;100210.99;;;21.66;32.23
72024;BME280;59889;50.700;5.440;2023-04-20T05:05:18;100209.94;;;21.90;32.37
72024;BME280;59889;50.700;5.440;2023-04-20T05:07:42;100203.61;;;21.72;32.45
72024;BME280;59889;50.700;5.440;2023-04-20T05:10:07;100204.06;;;21.99;32.38
72024;BME280;59889;50.700;5.440;2023-04-20T05:12:32;100209.13;;;21.78;32.38
72024;BME280;59889;50.700;5.440;2023-04-20T05:14:57;100206.62;;;21.91;32.53
72024;BME280;59889;50.700;5.440;2023-04-20T05:17:22;100204.49;;;21.99;32.47
72024;BME280;59889;50.700;5.440;2023-04-20T05:19:48;100200.06;;;22.00;32.50
72024;BME280;59889;50.700;5.440;2023-04-20T05:22:13;100201.92;;;22.02;32.50
72024;BME280;59889;50.700;5.440;2023-04-20T05:24:38;100205.01;;;21.84;32.50
72024;BME280;59889;50.700;5.440;2023-04-20T05:27:03;100209.68;;;21.76;32.62
72024;BME280;59889;50.700;5.440;2023-04-20T05:29:28;100220.27;;;21.96;32.69
72024;BME280;59889;50.700;5.440;2023-04-20T05:31:53;100220.76;;;21.92;32.79
72024;BME280;59889;50.700;5.440;2023-04-20T05:34:19;100221.38;;;21.50;32.75
72024;BME280;59889;50.700;5.440;2023-04-20T05:36:45;100220.93;;;22.00;32.74
72024;BME280;59889;50.700;5.440;2023-04-20T05:39:09;100225.18;;;22.03;32.71
72024;BME280;59889;50.700;5.440;2023-04-20T05:41:34;100229.45;;;21.89;32.90
72024;BME280;59889;50.700;5.440;2023-04-20T05:43:59;100231.18;;;21.75;32.79
72024;BME280;59889;50.700;5.440;2023-04-20T05:46:24;100236.41;;;21.70;32.85
72024;BME280;59889;50.700;5.440;2023-04-20T05:48:49;100233.36;;;21.86;32.93
72024;BME280;59889;50.700;5.440;2023-04-20T05:51:15;100227.13;;;21.74;32.80
72024;BME280;59889;50.700;5.440;2023-04-20T05:53:40;100224.11;;;21.65;32.91
72024;BME280;59889;50.700;5.440;2023-04-20T05:56:05;100220.55;;;21.66;32.91
72024;BME280;59889;50.700;5.440;2023-04-20T05:58:31;100222.95;;;21.93;32.88
72024;BME280;59889;50.700;5.440;2023-04-20T06:00:54;100221.89;;;21.90;32.92
72024;BME280;59889;50.700;5.440;2023-04-20T06:03:19;100219.06;;;21.76;32.81
72024;BME280;59889;50.700;5.440;2023-04-20T06:05:45;100213.07;;;21.95;32.87
72024;BME280;59889;50.700;5.440;2023-04-20T06:08:10;100213.89;;;21.93;32.89
72024;BME280;59889;50.700;5.440;2023-04-20T06:10:35;100220.13;;;21.65;32.98
72024;BME280;59889;50.700;5.440;2023-04-20T06:13:00;100222.84;;;21.92;32.94
72024;BME280;59889;50.700;5.440;2023-04-20T06:15:25;100219.36;;;21.84;33.01
72024;BME280;59889;50.700;5.440;2023-04-20T06:17:50;100219.68;;;21.82;33.04
72024;BME280;59889;50.700;5.440;2023-04-20T06:20:15;100219.12;;;21.61;33.01
72024;BME280;59889;50.700;5.440;2023-04-20T06:22:42;100214.58;;;21.62;33.04
72024;BME280;59889;50.700;5.440;2023-04-20T06:25:06;100213.12;;;21.65;32.97
72024;BME280;59889;50.700;5.440;2023-04-20T06:27:30;100210.01;;;21.53;33.13
72024;BME280;59889;50.700;5.440;2023-04-20T06:29:55;100206.28;;;21.68;33.21
72024;BME280;59889;50.700;5.440;2023-04-20T06:32:20;100201.47;;;21.59;33.05
72024;BME280;59889;50.700;5.440;2023-04-20T06:34:45;100198.14;;;21.74;33.16
72024;BME280;59889;50.700;5.440;2023-04-20T06:37:11;100197.52;;;21.78;33.09
72024;BME280;59889;50.700;5.440;2023-04-20T06:39:36;100193.75;;;21.57;33.07
72024;BME280;59889;50.700;5.440;2023-04-20T06:42:01;100192.71;;;21.50;33.14
72024;BME280;59889;50.700;5.440;2023-04-20T06:44:26;100193.33;;;21.77;33.08
72024;BME280;59889;50.700;5.440;2023-04-20T06:46:51;100191.64;;;21.75;33.09
72024;BME280;59889;50.700;5.440;2023-04-20T06:49:16;100187.26;;;21.76;33.11
72024;BME280;59889;50.700;5.440;2023-04-20T06:51:41;100185.21;;;21.71;33.17
72024;BME280;59889;50.700;5.440;2023-04-20T06:54:06;100179.61;;;21.77;33.11
72024;BME280;59889;50.700;5.440;2023-04-20T06:56:31;100176.02;;;21.68;33.20
72024;BME280;59889;50.700;5.440;2023-04-20T06:58:56;100177.49;;;21.79;33.07
72024;BME280;59889;50.700;5.440;2023-04-20T07:01:21;100178.16;;;21.68;33.18
72024;BME280;59889;50.700;5.440;2023-04-20T07:03:46;100174.53;;;21.66;33.22
72024;BME280;59889;50.700;5.440;2023-04-20T07:06:11;100173.91;;;21.70;33.15
72024;BME280;59889;50.700;5.440;2023-04-20T07:08:37;100173.65;;;21.68;33.19
72024;BME280;59889;50.700;5.440;2023-04-20T07:11:01;100171.90;;;21.94;33.14
72024;BME280;59889;50.700;5.440;2023-04-20T07:13:29;100173.28;;;21.65;33.19
72024;BME280;59889;50.700;5.440;2023-04-20T07:15:52;100168.41;;;21.53;33.30
72024;BME280;59889;50.700;5.440;2023-04-20T07:18:17;100167.62;;;21.64;33.20
72024;BME280;59889;50.700;5.440;2023-04-20T07:20:42;100165.44;;;21.62;33.21
72024;BME280;59889;50.700;5.440;2023-04-20T07:23:07;100165.07;;;21.71;33.11
72024;BME280;59889;50.700;5.440;2023-04-20T07:25:32;100164.30;;;21.36;33.22
72024;BME280;59889;50.700;5.440;2023-04-20T07:27:57;100161.32;;;21.61;33.22
72024;BME280;59889;50.700;5.440;2023-04-20T07:30:22;100157.71;;;21.43;33.14
72024;BME280;59889;50.700;5.440;2023-04-20T07:32:48;100155.59;;;21.75;33.04
72024;BME280;59889;50.700;5.440;2023-04-20T07:35:12;100155.70;;;21.64;33.16
72024;BME280;59889;50.700;5.440;2023-04-20T07:37:37;100155.63;;;21.77;33.25
72024;BME280;59889;50.700;5.440;2023-04-20T07:40:03;100155.28;;;21.47;33.07
72024;BME280;59889;50.700;5.440;2023-04-20T07:42:28;100154.54;;;21.35;33.21
72024;BME280;59889;50.700;5.440;2023-04-20T07:44:53;100156.08;;;21.59;33.21
72024;BME280;59889;50.700;5.440;2023-04-20T07:47:18;100155.15;;;21.63;33.15
72024;BME280;59889;50.700;5.440;2023-04-20T07:49:43;100158.04;;;21.62;33.16
72024;BME280;59889;50.700;5.440;2023-04-20T07:52:08;100155.90;;;21.62;33.15
72024;BME280;59889;50.700;5.440;2023-04-20T07:54:33;100155.40;;;21.54;33.22
72024;BME280;59889;50.700;5.440;2023-04-20T07:56:58;100156.89;;;21.66;33.11
72024;BME280;59889;50.700;5.440;2023-04-20T07:59:23;100157.63;;;21.68;33.08
72024;BME280;59889;50.700;5.440;2023-04-20T08:01:48;100155.49;;;21.64;33.13
72024;BME280;59889;50.700;5.440;2023-04-20T08:04:13;100150.86;;;21.47;33.05
72024;BME280;59889;50.700;5.440;2023-04-20T08:06:38;100150.60;;;21.68;33.05
72024;BME280;59889;50.700;5.440;2023-04-20T08:09:03;100149.06;;;21.66;33.08
72024;BME280;59889;50.700;5.440;2023-04-20T08:11:28;100143.26;;;21.50;33.24
72024;BME280;59889;50.700;5.440;2023-04-20T08:13:54;100142.89;;;21.55;33.18
72024;BME280;59889;50.700;5.440;2023-04-20T08:16:19;100144.30;;;21.60;33.15
72024;BME280;59889;50.700;5.440;2023-04-20T08:18:44;100139.02;;;21.50;33.22
72024;BME280;59889;50.700;5.440;2023-04-20T08:21:09;100139.84;;;21.56;33.17
72024;BME280;59889;50.700;5.440;2023-04-20T08:23:34;100134.29;;;21.55;33.18
72024;BME280;59889;50.700;5.440;2023-04-20T08:25:59;100131.76;;;21.54;33.18
72024;BME280;59889;50.700;5.440;2023-04-20T08:28:24;100130.88;;;21.54;33.18
72024;BME280;59889;50.700;5.440;2023-04-20T08:30:49;100130.54;;;21.69;33.03
72024;BME280;59889;50.700;5.440;2023-04-20T08:33:14;100128.14;;;21.48;32.97
72024;BME280;59889;50.700;5.440;2023-04-20T08:35:39;100125.30;;;21.56;33.18
72024;BME280;59889;50.700;5.440;2023-04-20T08:38:04;100121.67;;;21.61;33.14
72024;BME280;59889;50.700;5.440;2023-04-20T08:40:30;100122.54;;;21.34;33.20
72024;BME280;59889;50.700;5.440;2023-04-20T08:42:55;100124.40;;;21.60;33.19
72024;BME280;59889;50.700;5.440;2023-04-20T08:45:19;100124.87;;;21.86;33.20
72024;BME280;59889;50.700;5.440;2023-04-20T08:47:45;100127.20;;;21.63;33.21
72024;BME280;59889;50.700;5.440;2023-04-20T08:50:10;100123.86;;;21.26;33.40
72024;BME280;59889;50.700;5.440;2023-04-20T08:52:35;100122.00;;;21.68;33.17
72024;BME280;59889;50.700;5.440;2023-04-20T08:55:00;100120.27;;;21.62;33.14
72024;BME280;59889;50.700;5.440;2023-04-20T08:57:25;100120.19;;;21.50;33.22
72024;BME280;59889;50.700;5.440;2023-04-20T08:59:50;100121.56;;;21.58;33.11
72024;BME280;59889;50.700;5.440;2023-04-20T09:02:15;100115.96;;;21.30;33.36
72024;BME280;59889;50.700;5.440;2023-04-20T09:04:40;100114.79;;;21.46;33.15
72024;BME280;59889;50.700;5.440;2023-04-20T09:07:06;100111.26;;;21.47;33.08
72024;BME280;59889;50.700;5.440;2023-04-20T09:09:30;100109.56;;;21.44;33.10
72024;BME280;59889;50.700;5.440;2023-04-20T09:11:59;100108.43;;;21.71;33.05
72024;BME280;59889;50.700;5.440;2023-04-20T09:14:20;100105.89;;;21.51;32.95
72024;BME280;59889;50.700;5.440;2023-04-20T09:16:50;100104.61;;;21.43;32.97
72024;BME280;59889;50.700;5.440;2023-04-20T09:19:12;100103.01;;;21.47;32.88
72024;BME280;59889;50.700;5.440;2023-04-20T09:21:36;100098.82;;;21.45;32.84
72024;BME280;59889;50.700;5.440;2023-04-20T09:24:03;100094.31;;;21.18;32.83
72024;BME280;59889;50.700;5.440;2023-04-20T09:26:27;100090.94;;;21.45;32.77
72024;BME280;59889;50.700;5.440;2023-04-20T09:28:51;100088.30;;;21.56;32.63
72024;BME280;59889;50.700;5.440;2023-04-20T09:31:17;100088.11;;;21.48;32.64
72024;BME280;59889;50.700;5.440;2023-04-20T09:33:42;100087.91;;;21.18;32.67
72024;BME280;59889;50.700;5.440;2023-04-20T09:36:07;100085.39;;;21.43;32.64
72024;BME280;59889;50.700;5.440;2023-04-20T09:38:32;100087.26;;;21.40;32.61
72024;BME280;59889;50.700;5.440;2023-04-20T09:40:58;100090.19;;;21.32;32.71
72024;BME280;59889;50.700;5.440;2023-04-20T09:43:23;100087.77;;;21.46;32.53
72024;BME280;59889;50.700;5.440;2023-04-20T09:45:47;100091.69;;;21.39;32.59
72024;BME280;59889;50.700;5.440;2023-04-20T09:48:13;100089.95;;;21.41;32.53
72024;BME280;59889;50.700;5.440;2023-04-20T09:50:38;100087.84;;;21.45;32.46
72024;BME280;59889;50.700;5.440;2023-04-20T09:53:03;100086.21;;;21.41;32.38
72024;BME280;59889;50.700;5.440;2023-04-20T09:55:29;100084.40;;;21.10;32.33
72024;BME280;59889;50.700;5.440;2023-04-20T09:57:54;100082.44;;;21.41;32.18
72024;BME280;59889;50.700;5.440;2023-04-20T10:00:20;100075.49;;;21.38;32.16
72024;BME280;59889;50.700;5.440;2023-04-20T10:02:45;100073.79;;;21.30;32.21
72024;BME280;59889;50.700;5.440;2023-04-20T10:05:09;100071.78;;;21.18;32.30
72024;BME280;59889;50.700;5.440;2023-04-20T10:07:34;100063.20;;;21.41;31.96
72024;BME280;59889;50.700;5.440;2023-04-20T10:10:05;100062.06;;;21.38;31.90
72024;BME280;59889;50.700;5.440;2023-04-20T10:12:25;100056.25;;;21.30;31.96
72024;BME280;59889;50.700;5.440;2023-04-20T10:14:54;100049.20;;;21.40;31.94
72024;BME280;59889;50.700;5.440;2023-04-20T10:17:14;100050.23;;;21.12;32.05
72024;BME280;59889;50.700;5.440;2023-04-20T10:19:41;100050.82;;;21.42;32.06
72024;BME280;59889;50.700;5.440;2023-04-20T10:22:05;100047.81;;;21.34;32.18
72024;BME280;59889;50.700;5.440;2023-04-20T10:24:30;100045.66;;;21.34;32.18
72024;BME280;59889;50.700;5.440;2023-04-20T10:26:55;100045.03;;;21.15;32.14
72024;BME280;59889;50.700;5.440;2023-04-20T10:29:22;100043.81;;;21.32;32.21
72024;BME280;59889;50.700;5.440;2023-04-20T10:31:45;100045.28;;;21.36;32.15
72024;BME280;59889;50.700;5.440;2023-04-20T10:34:10;100043.04;;;21.24;32.30
72024;BME280;59889;50.700;5.440;2023-04-20T10:36:36;100042.95;;;21.57;32.21
72024;BME280;59889;50.700;5.440;2023-04-20T10:39:00;100041.88;;;21.24;32.33
72024;BME280;59889;50.700;5.440;2023-04-20T10:41:25;100046.06;;;21.62;32.15
72024;BME280;59889;50.700;5.440;2023-04-20T10:43:50;100046.60;;;21.49;32.32
72024;BME280;59889;50.700;5.440;2023-04-20T10:46:16;100044.90;;;21.30;32.32
72024;BME280;59889;50.700;5.440;2023-04-20T10:48:49;100045.23;;;21.32;32.28
72024;BME280;59889;50.700;5.440;2023-04-20T10:51:08;100046.06;;;21.27;32.35
72024;BME280;59889;50.700;5.440;2023-04-20T10:53:31;100045.22;;;21.35;32.25
72024;BME280;59889;50.700;5.440;2023-04-20T10:55:58;100043.55;;;21.28;32.33
72024;BME280;59889;50.700;5.440;2023-04-20T10:58:22;100043.06;;;21.29;32.34
72024;BME280;59889;50.700;5.440;2023-04-20T11:00:57;100041.06;;;21.33;32.31
72024;BME280;59889;50.700;5.440;2023-04-20T11:03:11;100041.57;;;21.79;32.30
72024;BME280;59889;50.700;5.440;2023-04-20T11:05:36;100039.23;;;21.17;32.48
72024;BME280;59889;50.700;5.440;2023-04-20T11:08:02;100038.17;;;21.24;32.41
72024;BME280;59889;50.700;5.440;2023-04-20T11:10:36;100038.88;;;21.22;32.42
72024;BME280;59889;50.700;5.440;2023-04-20T11:12:52;100037.34;;;21.19;32.45
72024;BME280;59889;50.700;5.440;2023-04-20T11:15:17;100032.75;;;21.60;32.25
72024;BME280;59889;50.700;5.440;2023-04-20T11:17:42;100029.38;;;21.31;32.33
72024;BME280;59889;50.700;5.440;2023-04-20T11:20:09;100028.92;;;21.34;32.31
72024;BME280;59889;50.700;5.440;2023-04-20T11:22:32;100027.56;;;21.32;32.33
72024;BME280;59889;50.700;5.440;2023-04-20T11:25:02;100023.89;;;21.36;32.29
72024;BME280;59889;50.700;5.440;2023-04-20T11:27:22;100019.63;;;21.63;32.24
72024;BME280;59889;50.700;5.440;2023-04-20T11:29:55;100016.31;;;21.32;32.34
72024;BME280;59889;50.700;5.440;2023-04-20T11:32:17;100014.35;;;21.34;32.30
72024;BME280;59889;50.700;5.440;2023-04-20T11:34:38;100013.64;;;21.40;32.23
72024;BME280;59889;50.700;5.440;2023-04-20T11:37:03;100007.50;;;21.40;32.26
72024;BME280;59889;50.700;5.440;2023-04-20T11:39:27;100004.39;;;21.43;32.21
72024;BME280;59889;50.700;5.440;2023-04-20T11:41:53;100000.64;;;21.23;32.15
72024;BME280;59889;50.700;5.440;2023-04-20T11:44:19;99995.88;;;21.22;32.18
72024;BME280;59889;50.700;5.440;2023-04-20T11:46:43;99994.83;;;21.53;32.10
72024;BME280;59889;50.700;5.440;2023-04-20T11:49:08;99994.35;;;21.41;32.22
72024;BME280;59889;50.700;5.440;2023-04-20T11:51:33;99996.98;;;21.17;32.22
72024;BME280;59889;50.700;5.440;2023-04-20T11:53:58;99995.55;;;21.33;32.33
72024;BME280;59889;50.700;5.440;2023-04-20T11:56:23;99993.59;;;21.41;32.25
72024;BME280;59889;50.700;5.440;2023-04-20T11:58:48;99994.98;;;21.25;32.42
72024;BME280;59889;50.700;5.440;2023-04-20T12:01:13;99995.06;;;21.31;32.37
72024;BME280;59889;50.700;5.440;2023-04-20T12:03:38;99990.08;;;21.27;32.43
72024;BME280;59889;50.700;5.440;2023-04-20T12:06:03;99992.13;;;21.58;32.37
72024;BME280;59889;50.700;5.440;2023-04-20T12:08:28;99985.24;;;21.16;32.30
72024;BME280;59889;50.700;5.440;2023-04-20T12:10:53;99984.96;;;21.29;32.42
72024;BME280;59889;50.700;5.440;2023-04-20T12:13:18;99980.55;;;21.44;32.24
72024;BME280;59889;50.700;5.440;2023-04-20T12:15:43;99981.39;;;21.47;32.23
72024;BME280;59889;50.700;5.440;2023-04-20T12:18:08;99979.61;;;21.48;32.21
72024;BME280;59889;50.700;5.440;2023-04-20T12:20:34;99979.38;;;21.49;32.18
72024;BME280;59889;50.700;5.440;2023-04-20T12:22:59;99973.65;;;21.45;32.24
72024;BME280;59889;50.700;5.440;2023-04-20T12:25:24;99974.92;;;21.42;32.27
72024;BME280;59889;50.700;5.440;2023-04-20T12:27:49;99971.06;;;21.14;32.29
72024;BME280;59889;50.700;5.440;2023-04-20T12:30:14;99970.56;;;21.44;32.24
72024;BME280;59889;50.700;5.440;2023-04-20T12:32:39;99968.48;;;21.32;32.39
72024;BME280;59889;50.700;5.440;2023-04-20T12:35:05;99966.56;;;21.40;32.32
72024;BME280;59889;50.700;5.440;2023-04-20T12:37:29;99965.57;;;21.57;32.51